createdAt,value
2022-10-13T00:01:44.821Z,70.00
2022-10-13T00:05:11.005Z,70.00
2022-10-13T00:08:35.312Z,70.20
2022-10-13T00:11:59.861Z,70.30
2022-10-13T00:15:26.285Z,70.40
2022-10-13T00:18:51.074Z,70.70
2022-10-13T00:22:17.041Z,71.00
2022-10-13T00:25:44.448Z,71.10
2022-10-13T00:29:08.996Z,71.40
2022-10-13T00:32:32.875Z,71.50
2022-10-13T00:35:56.942Z,71.50
2022-10-13T00:39:22.238Z,71.60
2022-10-13T00:42:45.825Z,71.60
2022-10-13T00:46:09.898Z,71.40
2022-10-13T00:49:33.878Z,71.20
2022-10-13T00:53:02.747Z,71.10
2022-10-13T00:56:30.286Z,70.90
2022-10-13T00:59:54.268Z,71.00
2022-10-13T01:03:19.542Z,71.90
2022-10-13T01:06:44.768Z,71.30
2022-10-13T01:10:11.142Z,71.20
2022-10-13T01:13:42.154Z,71.00
2022-10-13T01:17:13.839Z,70.90
2022-10-13T01:21:18.310Z,70.90
2022-10-13T01:24:49.737Z,70.90
2022-10-13T01:28:27.604Z,71.10
2022-10-13T01:32:02.760Z,71.20
2022-10-13T01:35:36.965Z,71.20
2022-10-13T01:39:06.591Z,71.10
2022-10-13T01:42:37.207Z,71.00
2022-10-13T01:46:06.851Z,70.90
2022-10-13T01:49:35.382Z,70.90
2022-10-13T01:53:02.094Z,70.90
2022-10-13T01:56:26.074Z,70.60
2022-10-13T01:59:50.025Z,70.90
2022-10-13T02:03:24.672Z,70.90
2022-10-13T02:06:54.705Z,70.90
2022-10-13T02:10:27.690Z,71.30
2022-10-13T02:13:58.627Z,71.20
2022-10-13T02:17:27.042Z,71.20
2022-10-13T02:20:52.126Z,71.40
2022-10-13T02:24:17.599Z,71.40
2022-10-13T02:27:42.613Z,71.40
2022-10-13T02:31:09.301Z,71.60
2022-10-13T02:34:33.024Z,71.60
2022-10-13T02:37:57.014Z,71.60
2022-10-13T02:41:22.580Z,71.50
2022-10-13T02:44:47.064Z,71.70
2022-10-13T02:48:11.607Z,71.60
2022-10-13T02:51:39.836Z,71.50
2022-10-13T02:55:04.997Z,71.30
2022-10-13T02:58:30.369Z,71.30
2022-10-13T03:01:55.205Z,71.90
2022-10-13T03:05:20.295Z,70.90
2022-10-13T03:08:44.073Z,70.90
2022-10-13T03:12:08.620Z,71.70
2022-10-13T03:15:34.406Z,70.60
2022-10-13T03:19:00.121Z,70.50
2022-10-13T03:22:24.317Z,70.20
2022-10-13T03:25:49.221Z,70.00
2022-10-13T03:29:15.157Z,69.90
2022-10-13T03:32:40.578Z,70.00
2022-10-13T03:36:07.189Z,69.70
2022-10-13T03:39:31.091Z,69.60
2022-10-13T03:42:55.282Z,69.60
2022-10-13T03:46:19.772Z,69.50
2022-10-13T03:49:45.449Z,69.60
2022-10-13T03:53:12.530Z,69.70
2022-10-13T03:56:37.214Z,69.70
2022-10-13T04:00:01.611Z,69.60
2022-10-13T04:03:26.082Z,69.50
2022-10-13T04:06:51.594Z,69.50
2022-10-13T04:10:16.201Z,69.60
2022-10-13T04:13:40.278Z,69.70
2022-10-13T04:17:04.210Z,69.70
2022-10-13T04:20:30.494Z,69.80
2022-10-13T04:23:58.139Z,69.60
2022-10-13T04:27:23.743Z,69.60
2022-10-13T04:30:49.602Z,69.60
2022-10-13T04:34:14.232Z,69.70
2022-10-13T04:37:42.767Z,69.80
2022-10-13T04:41:11.963Z,69.80
2022-10-13T04:44:36.157Z,69.60
2022-10-13T04:48:02.198Z,69.50
2022-10-13T04:51:27.202Z,69.40
2022-10-13T04:54:51.136Z,69.50
2022-10-13T04:58:16.536Z,69.40
2022-10-13T05:01:40.177Z,69.30
2022-10-13T05:05:09.285Z,69.10
2022-10-13T05:08:33.855Z,69.20
2022-10-13T05:11:58.287Z,69.10
2022-10-13T05:15:23.674Z,69.10
2022-10-13T05:18:49.193Z,69.20
2022-10-13T05:22:12.863Z,69.10
2022-10-13T05:25:38.718Z,69.10
2022-10-13T05:29:03.603Z,68.80
2022-10-13T05:32:29.318Z,68.70
2022-10-13T05:35:53.215Z,68.60
2022-10-13T05:39:17.515Z,68.40
2022-10-13T05:42:41.131Z,68.30
2022-10-13T05:46:07.988Z,68.30
2022-10-13T05:49:36.298Z,68.50
2022-10-13T05:52:59.845Z,68.30
2022-10-13T05:56:26.955Z,68.40
2022-10-13T05:59:54.397Z,68.30
2022-10-13T06:03:22.922Z,67.90
2022-10-13T06:06:49.518Z,68.00
2022-10-13T06:10:13.491Z,67.80
2022-10-13T06:13:37.183Z,67.70
2022-10-13T06:17:00.880Z,67.50
2022-10-13T06:20:24.425Z,67.30
2022-10-13T06:23:49.351Z,67.20
2022-10-13T06:27:15.224Z,67.10
2022-10-13T06:30:39.549Z,67.00
2022-10-13T06:34:03.394Z,66.80
2022-10-13T06:37:27.604Z,66.60
2022-10-13T06:40:52.614Z,66.70
2022-10-13T06:44:17.569Z,66.40
2022-10-13T06:47:41.222Z,66.30
2022-10-13T06:51:06.498Z,65.90
2022-10-13T06:54:30.576Z,66.00
2022-10-13T06:57:55.433Z,66.00
2022-10-13T07:01:19.073Z,65.70
2022-10-13T07:04:42.629Z,66.00
2022-10-13T07:08:06.256Z,66.40
2022-10-13T07:11:29.923Z,66.70
2022-10-13T07:14:57.356Z,66.40
2022-10-13T07:18:21.382Z,66.30
2022-10-13T07:21:44.999Z,66.10
2022-10-13T07:25:09.786Z,66.20
2022-10-13T07:28:33.493Z,65.70
2022-10-13T07:31:58.565Z,65.30
2022-10-13T07:35:29.668Z,64.70
2022-10-13T07:38:54.681Z,64.60
2022-10-13T07:42:18.386Z,64.10
2022-10-13T07:45:41.916Z,63.80
2022-10-13T07:49:06.768Z,63.50
2022-10-13T07:52:30.538Z,62.80
2022-10-13T07:55:54.090Z,62.20
2022-10-13T07:59:17.700Z,60.10
2022-10-13T08:02:41.331Z,57.50
2022-10-13T08:06:08.044Z,55.10
2022-10-13T08:09:31.682Z,53.90
2022-10-13T08:12:55.256Z,53.50
2022-10-13T08:16:18.914Z,54.00
2022-10-13T08:19:42.435Z,53.60
2022-10-13T08:23:07.780Z,53.50
2022-10-13T08:26:31.783Z,52.80
2022-10-13T08:29:55.761Z,52.90
2022-10-13T08:33:19.361Z,53.60
2022-10-13T08:36:43.633Z,53.40
2022-10-13T08:40:14.239Z,53.40
2022-10-13T08:43:49.061Z,51.70
2022-10-13T08:47:30.669Z,51.60
2022-10-13T08:50:57.627Z,51.80
2022-10-13T08:54:25.498Z,52.70
2022-10-13T08:57:50.485Z,51.70
2022-10-13T09:01:17.022Z,51.80
2022-10-13T09:04:49.330Z,49.10
2022-10-13T09:08:20.097Z,45.20
2022-10-13T09:11:45.674Z,44.30
2022-10-13T09:15:12.889Z,45.90
2022-10-13T09:18:37.540Z,47.00
2022-10-13T09:22:17.307Z,48.70
2022-10-13T09:25:42.934Z,50.30
2022-10-13T09:29:11.118Z,51.50
2022-10-13T09:32:37.512Z,52.80
2022-10-13T09:36:23.251Z,53.40
2022-10-13T09:39:48.001Z,54.60
2022-10-13T09:43:31.248Z,55.00
2022-10-13T09:46:57.907Z,54.40
2022-10-13T09:50:25.621Z,53.40
2022-10-13T09:53:50.534Z,53.30
2022-10-13T09:57:20.394Z,53.30
2022-10-13T10:00:44.411Z,53.90
2022-10-13T10:04:14.433Z,53.30
2022-10-13T10:07:41.237Z,54.10
2022-10-13T10:11:11.248Z,54.30
2022-10-13T10:14:39.304Z,53.90
2022-10-13T10:18:08.686Z,53.10
2022-10-13T10:21:37.913Z,52.80
2022-10-13T10:25:13.957Z,53.10
2022-10-13T10:29:00.717Z,53.50
2022-10-13T10:32:29.867Z,53.70
2022-10-13T10:36:02.105Z,53.70
2022-10-13T10:39:33.049Z,53.40
2022-10-13T10:43:24.177Z,53.80
2022-10-13T10:46:50.062Z,53.30
2022-10-13T10:50:17.156Z,53.20
2022-10-13T10:53:50.860Z,53.60
2022-10-13T10:57:21.152Z,53.40
2022-10-13T11:00:54.285Z,54.20
2022-10-13T11:04:43.928Z,54.00
2022-10-13T11:08:27.778Z,53.60
2022-10-13T11:11:51.453Z,53.20
2022-10-13T11:15:23.225Z,52.90
2022-10-13T11:19:09.162Z,53.50
2022-10-13T11:22:32.730Z,53.50
2022-10-13T11:26:41.416Z,53.10
2022-10-13T11:30:06.817Z,53.20
2022-10-13T11:33:35.375Z,53.30
2022-10-13T11:37:01.251Z,53.00
2022-10-13T11:40:28.836Z,53.00
2022-10-13T11:44:02.112Z,52.90
2022-10-13T11:47:53.918Z,53.10
2022-10-13T11:51:25.580Z,53.40
2022-10-13T11:54:52.748Z,53.40
2022-10-13T11:58:20.296Z,53.20
2022-10-13T12:01:46.520Z,53.30
2022-10-13T12:05:22.490Z,53.60
2022-10-13T12:08:48.804Z,53.40
2022-10-13T12:12:16.992Z,52.90
2022-10-13T12:15:44.139Z,52.60
2022-10-13T12:19:10.936Z,52.10
2022-10-13T12:22:40.129Z,52.20
2022-10-13T12:26:04.256Z,52.20
2022-10-13T12:29:33.467Z,52.10
2022-10-13T12:33:01.366Z,52.50
2022-10-13T12:36:31.030Z,51.50
2022-10-13T12:39:56.561Z,51.20
2022-10-13T12:43:26.201Z,51.20
2022-10-13T12:46:52.195Z,51.50
2022-10-13T12:50:24.241Z,51.00
2022-10-13T12:53:49.630Z,51.40
2022-10-13T12:57:19.369Z,51.70
2022-10-13T13:00:42.924Z,52.10
2022-10-13T13:04:18.565Z,51.40
2022-10-13T13:07:42.130Z,51.70
2022-10-13T13:11:09.034Z,51.90
2022-10-13T13:14:38.346Z,52.00
2022-10-13T13:18:36.613Z,52.00
2022-10-13T13:22:00.163Z,51.80
2022-10-13T13:25:24.216Z,51.70
2022-10-13T13:28:51.498Z,51.80
2022-10-13T13:32:19.855Z,51.50
2022-10-13T13:35:43.769Z,51.80
2022-10-13T13:39:07.792Z,51.30
2022-10-13T13:42:31.765Z,51.10
2022-10-13T13:45:56.812Z,51.00
2022-10-13T13:49:20.309Z,51.20
2022-10-13T13:52:44.148Z,51.00
2022-10-13T13:56:14.151Z,51.10
2022-10-13T13:59:37.729Z,51.90
2022-10-13T14:03:02.711Z,50.90
2022-10-13T14:06:26.212Z,50.50
2022-10-13T14:09:49.846Z,50.30
2022-10-13T14:13:13.384Z,50.10
2022-10-13T14:16:37.053Z,50.30
2022-10-13T14:20:04.283Z,50.60
2022-10-13T14:23:33.841Z,50.50
2022-10-13T14:26:57.420Z,50.80
2022-10-13T14:30:21.061Z,50.80
2022-10-13T14:33:44.805Z,50.60
2022-10-13T14:37:09.781Z,50.50
2022-10-13T14:40:33.369Z,50.70
2022-10-13T14:43:57.796Z,50.60
2022-10-13T14:47:21.668Z,51.60
2022-10-13T14:50:45.466Z,51.10
2022-10-13T14:54:10.789Z,51.30
2022-10-13T14:57:34.303Z,51.60
2022-10-13T15:00:57.801Z,51.90
2022-10-13T15:04:21.705Z,52.10
2022-10-13T15:07:45.276Z,52.20
2022-10-13T15:11:10.831Z,52.30
2022-10-13T15:14:34.433Z,52.40
2022-10-13T15:17:58.102Z,52.80
2022-10-13T15:21:21.936Z,53.00
2022-10-13T15:24:45.639Z,53.00
2022-10-13T15:28:10.597Z,53.20
2022-10-13T15:31:34.139Z,53.30
2022-10-13T15:34:57.740Z,53.40
2022-10-13T15:38:22.373Z,53.50
2022-10-13T15:41:46.028Z,53.60
2022-10-13T15:45:12.057Z,54.00
2022-10-13T15:48:35.858Z,54.80
2022-10-13T15:51:59.448Z,55.30
2022-10-13T15:55:23.141Z,55.50
2022-10-13T15:58:46.719Z,55.90
2022-10-13T16:02:12.065Z,56.70
2022-10-13T16:05:35.744Z,57.60
2022-10-13T16:08:59.796Z,58.30
2022-10-13T16:12:24.664Z,59.90
2022-10-13T16:15:58.013Z,62.50
2022-10-13T16:19:23.324Z,65.90
2022-10-13T16:22:47.159Z,68.40
2022-10-13T16:26:11.578Z,69.70
2022-10-13T16:29:35.097Z,70.90
2022-10-13T16:32:58.989Z,72.00
2022-10-13T16:36:25.177Z,72.60
2022-10-13T16:39:51.771Z,73.20
2022-10-13T16:43:15.707Z,73.40
2022-10-13T16:46:45.018Z,73.70
2022-10-13T16:50:10.154Z,73.70
2022-10-13T16:53:35.401Z,74.10
2022-10-13T16:56:59.201Z,74.30
2022-10-13T17:00:22.997Z,74.30
2022-10-13T17:03:47.847Z,74.40
2022-10-13T17:07:12.118Z,74.50
2022-10-13T17:10:37.060Z,74.50
2022-10-13T17:14:01.491Z,74.70
2022-10-13T17:17:28.490Z,74.90
2022-10-13T17:20:53.508Z,75.20
2022-10-13T17:24:18.059Z,75.50
2022-10-13T17:27:43.046Z,75.70
2022-10-13T17:31:09.355Z,75.60
2022-10-13T17:34:32.859Z,75.50
2022-10-13T17:37:57.103Z,75.20
2022-10-13T17:41:21.471Z,75.10
2022-10-13T17:44:48.832Z,75.10
2022-10-13T17:48:14.433Z,75.30
2022-10-13T17:51:39.082Z,75.30
2022-10-13T17:55:02.652Z,75.60
2022-10-13T17:58:27.152Z,75.80
2022-10-13T18:01:52.020Z,75.80
2022-10-13T18:05:15.811Z,76.10
2022-10-13T18:08:39.420Z,76.20
2022-10-13T18:12:02.975Z,76.10
2022-10-13T18:15:26.536Z,76.00
2022-10-13T18:18:52.952Z,76.10
2022-10-13T18:22:17.324Z,76.10
2022-10-13T18:25:40.876Z,75.90
2022-10-13T18:29:06.326Z,75.60
2022-10-13T18:32:29.886Z,75.60
2022-10-13T18:35:54.778Z,75.30
2022-10-13T18:39:20.063Z,75.20
2022-10-13T18:42:50.560Z,75.10
2022-10-13T18:46:16.696Z,75.10
2022-10-13T18:49:42.018Z,74.80
2022-10-13T18:53:06.862Z,74.80
2022-10-13T18:56:33.381Z,74.90
2022-10-13T18:59:56.953Z,74.70
2022-10-13T19:03:25.557Z,74.60
2022-10-13T19:06:49.166Z,74.50
2022-10-13T19:10:14.044Z,74.30
2022-10-13T19:13:38.768Z,74.50
2022-10-13T19:17:02.549Z,74.60
2022-10-13T19:20:26.568Z,75.50
2022-10-13T19:23:51.517Z,74.50
2022-10-13T19:27:19.600Z,74.30
2022-10-13T19:30:43.523Z,74.40
2022-10-13T19:34:07.168Z,74.40
2022-10-13T19:37:32.130Z,74.30
2022-10-13T19:40:55.736Z,74.50
2022-10-13T19:44:21.554Z,74.00
2022-10-13T19:47:45.202Z,73.90
2022-10-13T19:51:10.224Z,73.60
2022-10-13T19:54:35.608Z,73.40
2022-10-13T19:57:59.169Z,73.60
2022-10-13T20:01:24.413Z,73.90
2022-10-13T20:04:48.113Z,74.00
2022-10-13T20:08:13.057Z,74.00
2022-10-13T20:11:36.626Z,73.90
2022-10-13T20:15:00.151Z,73.40
2022-10-13T20:18:25.077Z,73.00
2022-10-13T20:21:51.415Z,73.10
2022-10-13T20:25:19.478Z,73.00
2022-10-13T20:28:44.946Z,72.80
2022-10-13T20:32:08.757Z,72.90
2022-10-13T20:35:33.726Z,72.90
2022-10-13T20:38:57.392Z,72.80
2022-10-13T20:42:20.989Z,72.70
2022-10-13T20:45:44.503Z,72.40
2022-10-13T20:49:11.308Z,72.80
2022-10-13T20:52:38.415Z,73.50
2022-10-13T20:56:03.681Z,74.20
2022-10-13T20:59:27.520Z,74.80
2022-10-13T21:02:51.092Z,75.40
2022-10-13T21:06:15.670Z,75.90
2022-10-13T21:09:40.696Z,76.40
2022-10-13T21:13:04.306Z,76.90
2022-10-13T21:16:29.155Z,77.40
2022-10-13T21:19:53.014Z,78.10
2022-10-13T21:23:16.618Z,78.40
2022-10-13T21:26:41.897Z,78.40
2022-10-13T21:30:11.277Z,78.50
2022-10-13T21:33:35.826Z,78.80
2022-10-13T21:36:59.472Z,79.00
2022-10-13T21:40:23.203Z,79.20
2022-10-13T21:43:48.084Z,79.40
2022-10-13T21:47:11.658Z,79.50
2022-10-13T21:50:35.333Z,79.40
2022-10-13T21:54:00.620Z,79.40
2022-10-13T21:57:26.659Z,79.00
2022-10-13T22:00:51.894Z,79.00
2022-10-13T22:04:15.868Z,79.00
2022-10-13T22:07:39.385Z,79.00
2022-10-13T22:11:02.916Z,79.10
2022-10-13T22:14:26.579Z,79.00
2022-10-13T22:17:51.494Z,79.10
2022-10-13T22:21:18.448Z,79.30
2022-10-13T22:24:42.004Z,79.30
2022-10-13T22:28:05.580Z,79.50
2022-10-13T22:31:33.304Z,79.70
2022-10-13T22:35:03.846Z,79.90
2022-10-13T22:38:27.486Z,80.10
2022-10-13T22:41:51.336Z,80.20
2022-10-13T22:45:15.016Z,80.30
2022-10-13T22:48:40.849Z,80.30
2022-10-13T22:52:07.287Z,80.10
2022-10-13T22:55:31.521Z,80.40
2022-10-13T22:58:58.078Z,80.60
2022-10-13T23:02:22.508Z,80.90
2022-10-13T23:05:48.765Z,80.90
2022-10-13T23:09:14.960Z,81.10
2022-10-13T23:12:38.626Z,81.20
2022-10-13T23:16:03.196Z,81.10
2022-10-13T23:19:31.659Z,81.10
2022-10-13T23:22:55.593Z,81.00
2022-10-13T23:26:20.978Z,81.00
2022-10-13T23:29:44.585Z,81.00
2022-10-13T23:33:08.229Z,81.20
2022-10-13T23:36:33.814Z,80.90
2022-10-13T23:39:57.472Z,81.10
2022-10-13T23:43:23.074Z,81.40
2022-10-13T23:46:47.072Z,81.40
2022-10-13T23:50:13.449Z,82.10
2022-10-13T23:53:38.610Z,81.30
2022-10-13T23:57:02.186Z,81.30
